createdAt,value
2018-07-08T00:00:08.269Z,12.00
2018-07-08T00:02:36.983Z,11.90
2018-07-08T00:05:05.706Z,11.90
2018-07-08T00:07:34.394Z,11.80
2018-07-08T00:10:03.148Z,11.80
2018-07-08T00:12:31.899Z,11.70
2018-07-08T00:15:00.566Z,11.70
2018-07-08T00:17:29.332Z,11.60
2018-07-08T00:19:58.060Z,11.50
2018-07-08T00:22:26.746Z,11.50
2018-07-08T00:24:55.470Z,11.40
2018-07-08T00:27:24.136Z,11.40
2018-07-08T00:29:52.819Z,11.30
2018-07-08T00:32:21.579Z,11.30
2018-07-08T00:34:50.386Z,11.20
2018-07-08T00:37:22.053Z,11.10
2018-07-08T00:39:50.799Z,11.10
2018-07-08T00:42:19.507Z,11.00
2018-07-08T00:44:48.239Z,11.00
2018-07-08T00:47:16.890Z,10.90
2018-07-08T00:49:45.619Z,10.90
2018-07-08T00:52:14.360Z,10.80
2018-07-08T00:54:43.069Z,10.80
2018-07-08T00:57:11.827Z,11.00
2018-07-08T00:59:40.513Z,11.00
2018-07-08T01:02:09.226Z,11.00
2018-07-08T01:04:37.895Z,10.90
2018-07-08T01:07:06.713Z,10.90
2018-07-08T01:09:35.486Z,10.80
2018-07-08T01:12:04.276Z,10.70
2018-07-08T01:14:32.944Z,10.60
2018-07-08T01:17:01.682Z,10.60
2018-07-08T01:19:31.717Z,10.50
2018-07-08T01:22:00.408Z,10.40
2018-07-08T01:24:29.124Z,10.40
2018-07-08T01:26:57.771Z,10.30
2018-07-08T01:29:26.489Z,10.30
2018-07-08T01:31:55.222Z,10.30
2018-07-08T01:34:23.953Z,10.30
2018-07-08T01:36:52.626Z,10.30
2018-07-08T01:39:21.345Z,10.30
2018-07-08T01:41:50.119Z,10.20
2018-07-08T01:44:18.890Z,10.20
2018-07-08T01:46:47.617Z,10.10
2018-07-08T01:49:16.338Z,10.00
2018-07-08T01:51:45.037Z,9.90
2018-07-08T01:54:13.803Z,9.80
2018-07-08T01:56:42.504Z,9.70
2018-07-08T01:59:11.228Z,9.70
2018-07-08T02:01:39.986Z,9.60
2018-07-08T02:04:08.683Z,9.50
2018-07-08T02:06:37.379Z,9.50
2018-07-08T02:09:06.179Z,9.50
2018-07-08T02:11:34.938Z,9.40
2018-07-08T02:14:03.705Z,9.40
2018-07-08T02:16:32.414Z,9.30
2018-07-08T02:19:01.230Z,9.30
2018-07-08T02:21:29.950Z,9.20
2018-07-08T02:23:58.639Z,9.10
2018-07-08T02:26:27.334Z,9.10
2018-07-08T02:28:56.071Z,9.10
2018-07-08T02:31:24.799Z,9.10
2018-07-08T02:33:53.531Z,9.10
2018-07-08T02:36:22.283Z,9.00
2018-07-08T02:38:51.142Z,9.00
2018-07-08T02:41:19.814Z,8.90
2018-07-08T02:43:48.626Z,8.80
2018-07-08T02:46:17.384Z,8.80
2018-07-08T02:48:46.074Z,8.70
2018-07-08T02:51:14.766Z,8.50
2018-07-08T02:53:43.417Z,8.50
2018-07-08T02:56:12.155Z,8.50
2018-07-08T02:58:40.819Z,8.40
2018-07-08T03:01:09.592Z,8.40
2018-07-08T03:03:38.271Z,8.30
2018-07-08T03:06:06.933Z,8.20
2018-07-08T03:08:35.636Z,8.20
2018-07-08T03:11:04.321Z,8.20
2018-07-08T03:13:33.035Z,8.10
2018-07-08T03:16:01.684Z,8.20
2018-07-08T03:18:30.402Z,8.10
2018-07-08T03:20:59.148Z,8.20
2018-07-08T03:25:56.133Z,8.20
2018-07-08T03:28:24.854Z,8.20
2018-07-08T03:30:53.609Z,8.20
2018-07-08T03:33:22.444Z,8.10
2018-07-08T03:35:51.225Z,8.20
2018-07-08T03:38:20.017Z,8.20
2018-07-08T03:40:48.830Z,8.20
2018-07-08T03:43:17.566Z,8.20
2018-07-08T03:45:46.219Z,8.20
2018-07-08T03:48:14.907Z,8.20
2018-07-08T03:50:43.592Z,8.20
2018-07-08T03:53:12.287Z,8.10
2018-07-08T03:55:40.942Z,8.10
2018-07-08T03:58:09.687Z,8.10
2018-07-08T04:00:38.352Z,8.10
2018-07-08T04:03:07.074Z,8.10
2018-07-08T04:05:35.726Z,8.20
2018-07-08T04:08:04.437Z,8.20
2018-07-08T04:13:01.899Z,8.30
2018-07-08T04:15:30.679Z,8.40
2018-07-08T04:18:07.852Z,8.40
2018-07-08T04:20:37.588Z,8.50
2018-07-08T04:23:06.307Z,8.50
2018-07-08T04:25:35.023Z,8.60
2018-07-08T04:28:04.247Z,8.70
2018-07-08T04:30:33.232Z,8.80
2018-07-08T04:33:02.268Z,8.90
2018-07-08T04:35:30.940Z,8.90
2018-07-08T04:40:28.803Z,9.10
2018-07-08T04:42:57.503Z,9.20
2018-07-08T04:47:54.570Z,9.40
2018-07-08T04:50:23.270Z,9.40
2018-07-08T04:52:52.084Z,9.60
2018-07-08T04:55:20.779Z,9.70
2018-07-08T04:57:49.504Z,9.80
2018-07-08T05:00:18.222Z,10.00
2018-07-08T05:02:46.918Z,10.30
2018-07-08T05:05:15.671Z,10.60
2018-07-08T05:07:44.347Z,10.80
2018-07-08T05:10:13.190Z,11.10
2018-07-08T05:12:41.875Z,11.30
2018-07-08T05:15:10.648Z,11.50
2018-07-08T05:17:39.348Z,11.70
2018-07-08T05:20:08.221Z,11.90
2018-07-08T05:22:36.918Z,12.10
2018-07-08T05:25:05.656Z,12.30
2018-07-08T05:27:34.359Z,12.90
2018-07-08T05:30:03.100Z,14.10
2018-07-08T05:32:31.852Z,15.40
2018-07-08T05:35:00.541Z,16.60
2018-07-08T05:37:29.268Z,17.30
2018-07-08T05:39:58.245Z,18.10
2018-07-08T05:42:27.003Z,18.60
2018-07-08T05:44:55.702Z,19.10
2018-07-08T05:47:24.495Z,19.60
2018-07-08T05:49:53.180Z,20.10
2018-07-08T05:52:21.868Z,20.30
2018-07-08T05:54:50.687Z,20.00
2018-07-08T05:57:19.373Z,20.40
2018-07-08T05:59:48.090Z,20.80
2018-07-08T06:02:16.817Z,21.20
2018-07-08T06:04:45.519Z,20.40
2018-07-08T06:07:14.235Z,20.70
2018-07-08T06:09:42.928Z,20.80
2018-07-08T06:12:11.642Z,20.70
2018-07-08T06:14:40.350Z,20.10
2018-07-08T06:17:09.155Z,20.70
2018-07-08T06:19:37.894Z,21.10
2018-07-08T06:22:06.767Z,20.70
2018-07-08T06:24:35.450Z,21.30
2018-07-08T06:27:04.222Z,21.10
2018-07-08T06:29:32.986Z,21.40
2018-07-08T06:32:01.797Z,21.30
2018-07-08T06:34:30.493Z,21.40
2018-07-08T06:36:59.203Z,21.10
2018-07-08T06:39:27.920Z,20.60
2018-07-08T06:41:56.650Z,20.70
2018-07-08T06:44:25.445Z,20.40
2018-07-08T06:46:54.097Z,20.50
2018-07-08T06:49:22.867Z,20.30
2018-07-08T06:51:51.589Z,20.90
2018-07-08T06:54:20.369Z,21.00
2018-07-08T06:56:49.123Z,21.60
2018-07-08T06:59:17.825Z,22.00
2018-07-08T07:01:46.522Z,22.60
2018-07-08T07:04:15.254Z,22.70
2018-07-08T07:06:44.199Z,22.40
2018-07-08T07:09:12.917Z,21.80
2018-07-08T07:11:41.623Z,21.50
2018-07-08T07:14:10.395Z,21.70
2018-07-08T07:16:39.268Z,22.00
2018-07-08T07:19:08.103Z,22.40
2018-07-08T07:21:36.845Z,21.70
2018-07-08T07:24:05.650Z,21.20
2018-07-08T07:26:34.323Z,21.00
2018-07-08T07:29:03.142Z,21.20
2018-07-08T07:31:31.887Z,21.70
2018-07-08T07:34:00.656Z,22.70
2018-07-08T07:36:29.402Z,23.20
2018-07-08T07:39:01.079Z,23.00
2018-07-08T07:41:29.783Z,23.10
2018-07-08T07:43:58.996Z,23.90
2018-07-08T07:46:27.779Z,24.30
2018-07-08T07:48:56.560Z,24.00
2018-07-08T07:51:25.339Z,24.00
2018-07-08T07:53:54.055Z,24.60
2018-07-08T07:56:22.870Z,24.40
2018-07-08T07:58:52.300Z,24.60
2018-07-08T08:01:21.073Z,24.60
2018-07-08T08:03:49.883Z,24.90
2018-07-08T08:06:18.537Z,24.60
2018-07-08T08:08:47.383Z,24.70
2018-07-08T08:11:16.172Z,24.50
2018-07-08T08:13:56.158Z,25.50
2018-07-08T08:16:24.971Z,24.90
2018-07-08T08:18:53.734Z,25.40
2018-07-08T08:21:22.843Z,25.50
2018-07-08T08:23:51.577Z,25.10
2018-07-08T08:26:20.534Z,25.20
2018-07-08T08:28:49.341Z,26.40
2018-07-08T08:31:18.448Z,26.20
2018-07-08T08:33:58.297Z,26.60
2018-07-08T08:36:27.031Z,27.00
2018-07-08T08:38:55.699Z,27.20
2018-07-08T08:41:24.442Z,27.20
2018-07-08T08:43:53.207Z,27.00
2018-07-08T08:46:21.862Z,27.30
2018-07-08T08:48:50.571Z,27.20
2018-07-08T08:51:19.247Z,27.70
2018-07-08T08:53:48.127Z,27.40
2018-07-08T08:56:16.803Z,28.20
2018-07-08T08:58:45.530Z,27.90
2018-07-08T09:01:14.207Z,27.80
2018-07-08T09:03:42.901Z,28.40
2018-07-08T09:06:11.628Z,28.10
2018-07-08T09:08:40.287Z,28.50
2018-07-08T09:13:37.287Z,29.40
2018-07-08T09:16:06.346Z,29.40
2018-07-08T09:18:35.002Z,30.00
2018-07-08T09:21:03.755Z,29.60
2018-07-08T09:23:32.420Z,29.20
2018-07-08T09:26:01.186Z,29.40
2018-07-08T09:28:29.834Z,29.80
2018-07-08T09:30:58.531Z,29.70
2018-07-08T09:33:27.212Z,29.70
2018-07-08T09:35:55.931Z,28.80
2018-07-08T09:38:24.591Z,28.40
2018-07-08T09:40:53.262Z,28.80
2018-07-08T09:45:50.424Z,28.60
2018-07-08T09:48:19.128Z,28.50
2018-07-08T09:50:47.839Z,28.40
2018-07-08T09:53:16.492Z,28.80
2018-07-08T09:55:45.238Z,28.90
2018-07-08T09:58:13.900Z,29.70
2018-07-08T10:03:10.953Z,29.70
2018-07-08T10:05:39.617Z,29.10
2018-07-08T10:08:08.347Z,29.50
2018-07-08T10:10:37.016Z,29.20
2018-07-08T10:13:05.770Z,29.30
2018-07-08T10:15:34.448Z,29.90
2018-07-08T10:20:31.460Z,28.60
2018-07-08T10:23:00.196Z,29.10
2018-07-08T10:25:28.867Z,29.20
2018-07-08T10:28:15.147Z,30.10
2018-07-08T10:30:44.281Z,29.40
2018-07-08T10:33:13.015Z,29.20
2018-07-08T10:35:55.346Z,28.80
2018-07-08T10:40:52.575Z,28.30
2018-07-08T10:43:21.350Z,28.80
2018-07-08T10:45:50.224Z,29.20
2018-07-08T10:48:18.942Z,28.80
2018-07-08T10:50:47.760Z,29.20
2018-07-08T10:53:16.509Z,28.60
2018-07-08T10:55:45.296Z,27.90
2018-07-08T10:58:14.061Z,27.00
2018-07-08T11:00:42.806Z,26.70
2018-07-08T11:03:11.471Z,26.80
2018-07-08T11:05:40.187Z,26.80
2018-07-08T11:08:08.912Z,27.20
2018-07-08T11:10:37.672Z,26.80
2018-07-08T11:13:06.400Z,26.40
2018-07-08T11:15:35.176Z,26.30
2018-07-08T11:18:03.906Z,26.60
2018-07-08T11:20:32.658Z,26.70
2018-07-08T11:23:01.389Z,26.80
2018-07-08T11:25:30.124Z,26.50
2018-07-08T11:27:58.774Z,26.40
2018-07-08T11:30:27.575Z,25.90
2018-07-08T11:32:56.355Z,25.60
2018-07-08T11:35:25.006Z,25.50
2018-07-08T11:37:53.726Z,25.40
2018-07-08T11:40:22.395Z,25.30
2018-07-08T11:42:51.129Z,25.50
2018-07-08T11:45:19.792Z,25.30
2018-07-08T11:47:48.551Z,25.40
2018-07-08T11:50:17.206Z,25.50
2018-07-08T11:52:45.940Z,25.40
2018-07-08T11:57:42.964Z,25.20
2018-07-08T12:00:11.745Z,25.20
2018-07-08T12:02:40.514Z,24.90
2018-07-08T12:05:09.873Z,24.80
2018-07-08T12:07:38.732Z,24.70
2018-07-08T12:10:07.505Z,24.70
2018-07-08T12:12:36.276Z,24.80
2018-07-08T12:15:05.066Z,24.80
2018-07-08T12:17:33.836Z,24.90
2018-07-08T12:20:02.667Z,25.00
2018-07-08T12:22:31.576Z,25.00
2018-07-08T12:25:00.274Z,25.00
2018-07-08T12:27:28.955Z,25.00
2018-07-08T12:29:57.843Z,25.30
2018-07-08T12:32:26.586Z,25.30
2018-07-08T12:34:55.415Z,24.80
2018-07-08T12:37:24.157Z,24.90
2018-07-08T12:39:52.891Z,24.80
2018-07-08T12:42:21.615Z,24.90
2018-07-08T12:44:50.664Z,25.10
2018-07-08T12:47:19.350Z,25.20
2018-07-08T12:49:48.072Z,25.00
2018-07-08T12:52:16.803Z,25.10
2018-07-08T12:54:45.990Z,25.20
2018-07-08T12:57:14.887Z,25.20
2018-07-08T12:59:43.711Z,25.30
2018-07-08T13:02:12.414Z,25.30
2018-07-08T13:04:41.215Z,25.10
2018-07-08T13:07:09.980Z,24.80
2018-07-08T13:12:07.080Z,24.80
2018-07-08T13:14:35.737Z,24.90
2018-07-08T13:19:32.818Z,24.80
2018-07-08T13:22:01.531Z,24.80
2018-07-08T13:24:30.314Z,24.80
2018-07-08T13:26:58.971Z,25.10
2018-07-08T13:29:27.685Z,25.10
2018-07-08T13:31:56.326Z,25.20
2018-07-08T13:34:25.034Z,25.20
2018-07-08T13:36:53.697Z,25.30
2018-07-08T13:39:22.467Z,25.50
2018-07-08T13:41:51.131Z,25.40
2018-07-08T13:44:19.875Z,25.30
2018-07-08T13:46:48.778Z,25.10
2018-07-08T13:49:17.573Z,25.20
2018-07-08T13:51:46.262Z,25.30
2018-07-08T13:54:14.948Z,25.50
2018-07-08T13:56:43.672Z,25.60
2018-07-08T13:59:12.343Z,25.80
2018-07-08T14:01:41.054Z,25.60
2018-07-08T14:04:09.736Z,25.50
2018-07-08T14:06:38.459Z,25.40
2018-07-08T14:09:07.472Z,25.40
2018-07-08T14:11:36.222Z,25.50
2018-07-08T14:14:04.932Z,25.60
2018-07-08T14:16:33.810Z,25.70
2018-07-08T14:19:02.515Z,25.90
2018-07-08T14:21:31.261Z,26.10
2018-07-08T14:23:59.889Z,26.00
2018-07-08T14:26:31.428Z,26.30
2018-07-08T14:29:00.149Z,25.90
2018-07-08T14:31:28.943Z,25.70
2018-07-08T14:33:57.631Z,25.80
2018-07-08T14:36:26.325Z,25.90
2018-07-08T14:38:54.985Z,26.00
2018-07-08T14:41:23.717Z,26.20
2018-07-08T14:46:20.751Z,26.20
2018-07-08T14:48:49.459Z,26.40
2018-07-08T14:51:18.096Z,26.50
2018-07-08T14:53:46.843Z,26.70
2018-07-08T14:56:15.514Z,26.90
2018-07-08T15:01:12.671Z,26.70
2018-07-08T15:03:41.451Z,27.10
2018-07-08T15:06:10.160Z,26.90
2018-07-08T15:08:38.818Z,27.20
2018-07-08T15:11:07.582Z,27.00
2018-07-08T15:13:36.304Z,27.00
2018-07-08T15:16:05.149Z,27.00
2018-07-08T15:18:33.824Z,27.10
2018-07-08T15:21:02.559Z,27.50
2018-07-08T15:23:31.256Z,27.60
2018-07-08T15:25:59.952Z,27.90
2018-07-08T15:28:29.117Z,27.90
2018-07-08T15:30:57.859Z,27.50
2018-07-08T15:33:26.540Z,27.50
2018-07-08T15:35:55.223Z,27.90
2018-07-08T15:40:52.318Z,27.80
2018-07-08T15:43:21.019Z,27.90
2018-07-08T15:45:49.913Z,27.80
2018-07-08T15:48:18.603Z,27.70
2018-07-08T15:50:47.262Z,27.60
2018-07-08T15:53:15.953Z,27.60
2018-07-08T15:55:44.596Z,27.70
2018-07-08T15:58:13.325Z,27.70
2018-07-08T16:00:41.985Z,27.60
2018-07-08T16:03:10.723Z,27.50
2018-07-08T16:05:39.412Z,27.40
2018-07-08T16:08:08.130Z,27.00
2018-07-08T16:10:36.785Z,27.00
2018-07-08T16:13:05.607Z,27.00
2018-07-08T16:15:34.372Z,27.20
2018-07-08T16:18:03.127Z,27.00
2018-07-08T16:20:31.841Z,27.10
2018-07-08T16:23:00.604Z,27.20
2018-07-08T16:25:29.344Z,27.20
2018-07-08T16:27:58.237Z,27.30
2018-07-08T16:30:26.979Z,27.30
2018-07-08T16:32:55.806Z,27.30
2018-07-08T16:35:24.509Z,27.30
2018-07-08T16:37:53.390Z,27.20
2018-07-08T16:40:22.058Z,27.40
2018-07-08T16:42:50.909Z,27.00
2018-07-08T16:45:19.703Z,27.00
2018-07-08T16:47:48.500Z,26.80
2018-07-08T16:50:17.204Z,26.80
2018-07-08T16:52:46.408Z,26.70
2018-07-08T16:55:15.088Z,26.60
2018-07-08T16:57:43.855Z,26.60
2018-07-08T17:00:12.528Z,26.40
2018-07-08T17:02:41.287Z,26.40
2018-07-08T17:05:10.020Z,26.50
2018-07-08T17:07:38.674Z,26.40
2018-07-08T17:10:07.454Z,26.30
2018-07-08T17:12:36.269Z,26.30
2018-07-08T17:15:05.097Z,26.30
2018-07-08T17:17:33.935Z,26.30
2018-07-08T17:20:02.668Z,26.10
2018-07-08T17:22:31.329Z,26.00
2018-07-08T17:25:00.609Z,26.00
2018-07-08T17:27:29.391Z,25.90
2018-07-08T17:29:58.126Z,25.80
2018-07-08T17:32:26.838Z,25.60
2018-07-08T17:34:55.561Z,25.50
2018-07-08T17:37:24.245Z,25.40
2018-07-08T17:39:53.137Z,25.10
2018-07-08T17:42:21.825Z,25.00
2018-07-08T17:44:50.727Z,24.80
2018-07-08T17:47:19.378Z,24.60
2018-07-08T17:49:48.103Z,24.70
2018-07-08T17:52:16.753Z,24.80
2018-07-08T17:54:45.485Z,24.60
2018-07-08T17:57:14.201Z,24.60
2018-07-08T17:59:42.873Z,24.70
2018-07-08T18:02:11.852Z,24.60
2018-07-08T18:04:40.684Z,24.50
2018-07-08T18:07:09.889Z,24.40
2018-07-08T18:09:39.053Z,24.30
2018-07-08T18:12:07.836Z,24.20
2018-07-08T18:14:37.590Z,24.10
2018-07-08T18:17:06.294Z,24.00
2018-07-08T18:19:34.955Z,23.90
2018-07-08T18:22:03.999Z,24.00
2018-07-08T18:24:32.762Z,23.90
2018-07-08T18:27:01.543Z,23.90
2018-07-08T18:29:30.293Z,23.80
2018-07-08T18:31:59.011Z,23.70
2018-07-08T18:34:27.801Z,23.60
2018-07-08T18:36:56.472Z,23.50
2018-07-08T18:39:25.217Z,23.40
2018-07-08T18:41:53.944Z,23.40
2018-07-08T18:44:22.685Z,23.30
2018-07-08T18:46:51.448Z,23.30
2018-07-08T18:49:20.178Z,23.20
2018-07-08T18:51:48.905Z,23.10
2018-07-08T18:54:17.556Z,23.00
2018-07-08T18:56:46.247Z,22.90
2018-07-08T18:59:15.063Z,22.80
2018-07-08T19:01:43.725Z,22.60
2018-07-08T19:04:12.434Z,22.40
2018-07-08T19:06:41.255Z,22.30
2018-07-08T19:09:09.928Z,22.10
2018-07-08T19:11:38.682Z,21.90
2018-07-08T19:14:07.394Z,21.70
2018-07-08T19:16:36.063Z,21.60
2018-07-08T19:19:04.815Z,21.40
2018-07-08T19:21:33.514Z,21.30
2018-07-08T19:24:02.250Z,21.20
2018-07-08T19:26:31.459Z,21.00
2018-07-08T19:29:00.459Z,20.90
2018-07-08T19:31:29.203Z,20.60
2018-07-08T19:33:57.820Z,20.40
2018-07-08T19:36:26.616Z,20.30
2018-07-08T19:38:55.470Z,20.00
2018-07-08T19:41:24.235Z,19.90
2018-07-08T19:43:53.266Z,19.80
2018-07-08T19:46:22.499Z,19.60
2018-07-08T19:48:51.606Z,19.40
2018-07-08T19:51:20.460Z,19.30
2018-07-08T19:53:49.744Z,19.10
2018-07-08T19:56:18.499Z,19.10
2018-07-08T19:58:47.680Z,19.00
2018-07-08T20:01:16.525Z,19.30
2018-07-08T20:03:45.323Z,19.10
2018-07-08T20:06:14.308Z,19.10
2018-07-08T20:08:43.128Z,19.00
2018-07-08T20:11:11.995Z,18.80
2018-07-08T20:13:40.915Z,18.80
2018-07-08T20:16:09.636Z,18.80
2018-07-08T20:18:38.591Z,18.60
2018-07-08T20:21:07.527Z,18.50
2018-07-08T20:23:36.410Z,18.40
2018-07-08T20:28:34.006Z,18.20
2018-07-08T20:31:03.181Z,18.00
2018-07-08T20:33:31.954Z,17.90
2018-07-08T20:36:00.845Z,17.80
2018-07-08T20:38:29.642Z,17.80
2018-07-08T20:40:58.558Z,17.60
2018-07-08T20:43:27.458Z,17.60
2018-07-08T20:45:56.381Z,17.50
2018-07-08T20:48:25.621Z,17.50
2018-07-08T20:50:54.554Z,17.50
2018-07-08T20:53:23.382Z,17.30
2018-07-08T20:55:52.285Z,17.20
2018-07-08T20:58:21.711Z,17.10
2018-07-08T21:00:50.590Z,17.10
2018-07-08T21:03:19.574Z,17.00
2018-07-08T21:05:48.681Z,16.80
2018-07-08T21:08:17.407Z,16.80
2018-07-08T21:10:46.159Z,16.80
2018-07-08T21:13:15.167Z,16.70
2018-07-08T21:15:43.863Z,16.70
2018-07-08T21:18:12.566Z,16.70
2018-07-08T21:20:41.280Z,16.80
2018-07-08T21:23:10.309Z,16.70
2018-07-08T21:25:39.287Z,16.70
2018-07-08T21:28:08.334Z,16.60
2018-07-08T21:30:37.209Z,16.50
2018-07-08T21:33:06.130Z,16.40
2018-07-08T21:35:35.034Z,16.30
2018-07-08T21:38:03.892Z,16.20
2018-07-08T21:40:33.507Z,16.10
2018-07-08T21:43:02.488Z,16.00
2018-07-08T21:45:31.191Z,15.90
2018-07-08T21:48:00.029Z,15.80
2018-07-08T21:50:28.919Z,15.80
2018-07-08T21:52:57.766Z,15.80
2018-07-08T21:55:26.703Z,15.70
2018-07-08T21:57:55.434Z,15.60
2018-07-08T22:00:31.362Z,15.50
2018-07-08T22:03:00.627Z,15.50
2018-07-08T22:05:31.228Z,15.40
2018-07-08T22:08:03.254Z,15.40
2018-07-08T22:10:32.770Z,15.30
2018-07-08T22:13:03.073Z,15.30
2018-07-08T22:15:32.179Z,15.20
2018-07-08T22:18:01.141Z,15.20
2018-07-08T22:20:29.874Z,15.20
2018-07-08T22:22:58.920Z,15.10
2018-07-08T22:25:27.869Z,15.10
2018-07-08T22:27:56.715Z,15.10
2018-07-08T22:30:25.899Z,15.00
2018-07-08T22:32:54.838Z,15.00
2018-07-08T22:35:23.527Z,15.00
2018-07-08T22:37:52.299Z,14.90
2018-07-08T22:40:20.986Z,14.90
2018-07-08T22:42:49.764Z,14.90
2018-07-08T22:45:18.575Z,14.90
2018-07-08T22:50:15.617Z,14.90
2018-07-08T22:52:44.415Z,15.00
2018-07-08T22:55:13.123Z,15.10
2018-07-08T22:57:42.001Z,15.10
2018-07-08T23:00:22.051Z,15.10
2018-07-08T23:03:00.564Z,15.00
2018-07-08T23:05:29.286Z,15.20
2018-07-08T23:07:58.020Z,15.10
2018-07-08T23:10:26.677Z,15.00
2018-07-08T23:12:55.351Z,14.90
2018-07-08T23:15:24.095Z,14.80
2018-07-08T23:17:59.358Z,14.70
2018-07-08T23:20:28.093Z,14.60
2018-07-08T23:25:28.072Z,14.40
2018-07-08T23:27:56.855Z,14.30
2018-07-08T23:30:25.591Z,14.20
2018-07-08T23:33:00.716Z,14.10
2018-07-08T23:35:29.426Z,14.10
2018-07-08T23:37:58.084Z,14.00
2018-07-08T23:40:27.036Z,13.90
2018-07-08T23:42:55.794Z,13.80
2018-07-08T23:45:24.536Z,13.80
2018-07-08T23:47:53.287Z,13.70
2018-07-08T23:50:21.936Z,13.70
2018-07-08T23:52:50.769Z,13.60
2018-07-08T23:55:19.537Z,13.60
2018-07-08T23:57:48.226Z,13.60
